sensor_id;sensor_type;location;lat;lon;timestamp;temperature;humidity
20700;DHT22;10511;51.232;9.420;2022-12-16T00:01:07;-6.80;99.90
20700;DHT22;10511;51.232;9.420;2022-12-16T00:03:35;-6.80;99.90
20700;DHT22;10511;51.232;9.420;2022-12-16T00:06:03;-6.80;99.90
20700;DHT22;10511;51.232;9.420;2022-12-16T00:08:32;-7.00;99.90
20700;DHT22;10511;51.232;9.420;2022-12-16T00:11:01;-6.90;99.90
20700;DHT22;10511;51.232;9.420;2022-12-16T00:13:28;-6.80;99.90
20700;DHT22;10511;51.232;9.420;2022-12-16T00:15:56;-6.80;99.90
20700;DHT22;10511;51.232;9.420;2022-12-16T00:18:23;-6.60;99.90
20700;DHT22;10511;51.232;9.420;2022-12-16T00:20:52;-6.60;99.90
20700;DHT22;10511;51.232;9.420;2022-12-16T00:23:19;-6.70;99.90
20700;DHT22;10511;51.232;9.420;2022-12-16T00:25:46;-6.70;99.90
20700;DHT22;10511;51.232;9.420;2022-12-16T00:28:16;-6.70;99.90
20700;DHT22;10511;51.232;9.420;2022-12-16T00:30:43;-6.60;99.90
20700;DHT22;10511;51.232;9.420;2022-12-16T00:33:10;-6.60;99.90
20700;DHT22;10511;51.232;9.420;2022-12-16T00:35:37;-6.70;99.90
20700;DHT22;10511;51.232;9.420;2022-12-16T00:38:04;-6.70;99.90
20700;DHT22;10511;51.232;9.420;2022-12-16T00:40:31;-6.80;99.90
20700;DHT22;10511;51.232;9.420;2022-12-16T00:42:58;-6.80;99.90
20700;DHT22;10511;51.232;9.420;2022-12-16T00:45:27;-6.90;99.90
20700;DHT22;10511;51.232;9.420;2022-12-16T00:47:54;-7.40;99.90
20700;DHT22;10511;51.232;9.420;2022-12-16T00:50:21;-7.60;99.90
20700;DHT22;10511;51.232;9.420;2022-12-16T00:52:48;-7.80;99.90
20700;DHT22;10511;51.232;9.420;2022-12-16T00:55:15;-7.80;99.90
20700;DHT22;10511;51.232;9.420;2022-12-16T00:57:42;-7.70;99.90
20700;DHT22;10511;51.232;9.420;2022-12-16T01:00:10;-7.70;99.90
20700;DHT22;10511;51.232;9.420;2022-12-16T01:02:40;-7.90;99.90
20700;DHT22;10511;51.232;9.420;2022-12-16T01:05:08;-7.90;99.90
20700;DHT22;10511;51.232;9.420;2022-12-16T01:07:35;-7.90;99.90
20700;DHT22;10511;51.232;9.420;2022-12-16T01:10:03;-7.80;99.90
20700;DHT22;10511;51.232;9.420;2022-12-16T01:12:31;-7.60;99.90
20700;DHT22;10511;51.232;9.420;2022-12-16T01:14:58;-7.80;99.90
20700;DHT22;10511;51.232;9.420;2022-12-16T01:17:25;-8.10;99.90
20700;DHT22;10511;51.232;9.420;2022-12-16T01:19:53;-8.20;99.90
20700;DHT22;10511;51.232;9.420;2022-12-16T01:22:21;-8.30;99.90
20700;DHT22;10511;51.232;9.420;2022-12-16T01:24:48;-8.30;99.90
20700;DHT22;10511;51.232;9.420;2022-12-16T01:27:15;-8.30;99.90
20700;DHT22;10511;51.232;9.420;2022-12-16T01:29:42;-8.40;99.90
20700;DHT22;10511;51.232;9.420;2022-12-16T01:32:11;-8.30;99.90
20700;DHT22;10511;51.232;9.420;2022-12-16T01:34:38;-8.40;99.90
20700;DHT22;10511;51.232;9.420;2022-12-16T01:37:08;-8.30;99.90
20700;DHT22;10511;51.232;9.420;2022-12-16T01:39:36;-8.30;99.90
20700;DHT22;10511;51.232;9.420;2022-12-16T01:42:04;-8.30;99.90
20700;DHT22;10511;51.232;9.420;2022-12-16T01:44:35;-8.30;99.90
20700;DHT22;10511;51.232;9.420;2022-12-16T01:47:04;-8.30;99.90
20700;DHT22;10511;51.232;9.420;2022-12-16T01:49:35;-8.40;99.90
20700;DHT22;10511;51.232;9.420;2022-12-16T01:52:07;-8.30;99.90
20700;DHT22;10511;51.232;9.420;2022-12-16T01:54:37;-8.30;99.90
20700;DHT22;10511;51.232;9.420;2022-12-16T01:57:09;-8.40;99.90
20700;DHT22;10511;51.232;9.420;2022-12-16T01:59:39;-8.30;99.90
20700;DHT22;10511;51.232;9.420;2022-12-16T02:02:07;-8.40;99.90
20700;DHT22;10511;51.232;9.420;2022-12-16T02:04:35;-8.40;99.90
20700;DHT22;10511;51.232;9.420;2022-12-16T02:07:23;-8.40;99.90
20700;DHT22;10511;51.232;9.420;2022-12-16T02:09:50;-8.30;99.90
20700;DHT22;10511;51.232;9.420;2022-12-16T02:12:24;-8.10;99.90
20700;DHT22;10511;51.232;9.420;2022-12-16T02:15:17;-8.00;99.90
20700;DHT22;10511;51.232;9.420;2022-12-16T02:17:54;-7.80;99.90
20700;DHT22;10511;51.232;9.420;2022-12-16T02:24:15;-7.80;99.90
20700;DHT22;10511;51.232;9.420;2022-12-16T02:30:03;-7.60;99.90
20700;DHT22;10511;51.232;9.420;2022-12-16T02:32:39;-7.70;99.90
20700;DHT22;10511;51.232;9.420;2022-12-16T02:35:12;-7.80;99.90
20700;DHT22;10511;51.232;9.420;2022-12-16T02:37:46;-7.80;99.90
20700;DHT22;10511;51.232;9.420;2022-12-16T02:40:22;-7.90;99.90
20700;DHT22;10511;51.232;9.420;2022-12-16T02:42:55;-8.10;99.90
20700;DHT22;10511;51.232;9.420;2022-12-16T02:45:27;-8.20;99.90
20700;DHT22;10511;51.232;9.420;2022-12-16T02:47:56;-8.10;99.90
20700;DHT22;10511;51.232;9.420;2022-12-16T02:50:26;-7.90;99.90
20700;DHT22;10511;51.232;9.420;2022-12-16T02:52:55;-7.70;99.90
20700;DHT22;10511;51.232;9.420;2022-12-16T02:55:28;-7.70;99.90
20700;DHT22;10511;51.232;9.420;2022-12-16T02:58:05;-7.60;99.90
20700;DHT22;10511;51.232;9.420;2022-12-16T03:00:40;-7.90;99.90
20700;DHT22;10511;51.232;9.420;2022-12-16T03:03:19;-8.00;99.90
20700;DHT22;10511;51.232;9.420;2022-12-16T03:05:49;-7.90;99.90
20700;DHT22;10511;51.232;9.420;2022-12-16T03:08:21;-8.10;99.90
20700;DHT22;10511;51.232;9.420;2022-12-16T03:10:51;-8.40;99.90
20700;DHT22;10511;51.232;9.420;2022-12-16T03:13:20;-8.60;99.90
20700;DHT22;10511;51.232;9.420;2022-12-16T03:15:51;-8.70;99.90
20700;DHT22;10511;51.232;9.420;2022-12-16T03:18:21;-8.90;99.90
20700;DHT22;10511;51.232;9.420;2022-12-16T03:20:51;-8.90;99.90
20700;DHT22;10511;51.232;9.420;2022-12-16T03:23:24;-8.90;99.90
20700;DHT22;10511;51.232;9.420;2022-12-16T03:25:58;-8.90;99.90
20700;DHT22;10511;51.232;9.420;2022-12-16T03:28:35;-8.90;99.90
20700;DHT22;10511;51.232;9.420;2022-12-16T03:31:14;-8.90;99.90
20700;DHT22;10511;51.232;9.420;2022-12-16T03:33:48;-8.90;99.90
20700;DHT22;10511;51.232;9.420;2022-12-16T03:36:20;-8.90;99.90
20700;DHT22;10511;51.232;9.420;2022-12-16T03:38:49;-8.90;99.90
20700;DHT22;10511;51.232;9.420;2022-12-16T03:41:19;-8.90;99.90
20700;DHT22;10511;51.232;9.420;2022-12-16T03:43:48;-9.00;99.90
20700;DHT22;10511;51.232;9.420;2022-12-16T03:46:16;-9.00;99.90
20700;DHT22;10511;51.232;9.420;2022-12-16T03:48:49;-9.00;99.90
20700;DHT22;10511;51.232;9.420;2022-12-16T03:51:17;-9.10;99.90
20700;DHT22;10511;51.232;9.420;2022-12-16T03:53:45;-9.10;99.90
20700;DHT22;10511;51.232;9.420;2022-12-16T03:56:12;-9.00;99.90
20700;DHT22;10511;51.232;9.420;2022-12-16T03:58:39;-9.00;99.90
20700;DHT22;10511;51.232;9.420;2022-12-16T04:01:06;-8.90;99.90
20700;DHT22;10511;51.232;9.420;2022-12-16T04:03:33;-9.10;99.90
20700;DHT22;10511;51.232;9.420;2022-12-16T04:06:03;-9.10;99.90
20700;DHT22;10511;51.232;9.420;2022-12-16T04:08:30;-9.00;99.90
20700;DHT22;10511;51.232;9.420;2022-12-16T04:10:57;-8.80;99.90
20700;DHT22;10511;51.232;9.420;2022-12-16T04:13:41;-8.70;99.90
20700;DHT22;10511;51.232;9.420;2022-12-16T04:16:27;-8.60;99.90
20700;DHT22;10511;51.232;9.420;2022-12-16T04:19:17;-8.50;99.90
20700;DHT22;10511;51.232;9.420;2022-12-16T04:22:04;-8.50;99.90
20700;DHT22;10511;51.232;9.420;2022-12-16T04:24:49;-8.80;99.90
20700;DHT22;10511;51.232;9.420;2022-12-16T04:27:16;-8.90;99.90
20700;DHT22;10511;51.232;9.420;2022-12-16T04:29:52;-8.70;99.90
20700;DHT22;10511;51.232;9.420;2022-12-16T04:32:37;-8.50;99.90
20700;DHT22;10511;51.232;9.420;2022-12-16T04:35:21;-8.20;99.90
20700;DHT22;10511;51.232;9.420;2022-12-16T04:38:15;-8.10;99.90
20700;DHT22;10511;51.232;9.420;2022-12-16T04:40:59;-8.40;99.90
20700;DHT22;10511;51.232;9.420;2022-12-16T04:43:44;-8.60;99.90
20700;DHT22;10511;51.232;9.420;2022-12-16T04:46:28;-8.70;99.90
20700;DHT22;10511;51.232;9.420;2022-12-16T04:49:13;-8.50;99.90
20700;DHT22;10511;51.232;9.420;2022-12-16T04:51:58;-8.50;99.90
20700;DHT22;10511;51.232;9.420;2022-12-16T04:54:44;-8.70;99.90
20700;DHT22;10511;51.232;9.420;2022-12-16T04:57:28;-8.80;99.90
20700;DHT22;10511;51.232;9.420;2022-12-16T05:00:13;-8.90;99.90
20700;DHT22;10511;51.232;9.420;2022-12-16T05:02:58;-9.00;99.90
20700;DHT22;10511;51.232;9.420;2022-12-16T05:05:42;-9.00;99.90
20700;DHT22;10511;51.232;9.420;2022-12-16T05:08:26;-9.00;99.90
20700;DHT22;10511;51.232;9.420;2022-12-16T05:11:12;-8.90;99.90
20700;DHT22;10511;51.232;9.420;2022-12-16T05:13:57;-9.00;99.90
20700;DHT22;10511;51.232;9.420;2022-12-16T05:16:41;-8.80;99.90
20700;DHT22;10511;51.232;9.420;2022-12-16T05:19:26;-8.70;99.90
20700;DHT22;10511;51.232;9.420;2022-12-16T05:22:10;-8.50;99.90
20700;DHT22;10511;51.232;9.420;2022-12-16T05:24:55;-8.30;99.90
20700;DHT22;10511;51.232;9.420;2022-12-16T05:27:41;-8.20;99.90
20700;DHT22;10511;51.232;9.420;2022-12-16T05:30:25;-8.20;99.90
20700;DHT22;10511;51.232;9.420;2022-12-16T05:33:09;-8.20;99.90
20700;DHT22;10511;51.232;9.420;2022-12-16T05:35:54;-8.10;99.90
20700;DHT22;10511;51.232;9.420;2022-12-16T05:38:38;-8.00;99.90
20700;DHT22;10511;51.232;9.420;2022-12-16T05:41:23;-7.90;99.90
20700;DHT22;10511;51.232;9.420;2022-12-16T05:44:09;-7.90;99.90
20700;DHT22;10511;51.232;9.420;2022-12-16T05:46:53;-7.80;99.90
20700;DHT22;10511;51.232;9.420;2022-12-16T05:49:38;-7.80;99.90
20700;DHT22;10511;51.232;9.420;2022-12-16T05:52:22;-7.90;99.90
20700;DHT22;10511;51.232;9.420;2022-12-16T05:55:07;-8.30;99.90
20700;DHT22;10511;51.232;9.420;2022-12-16T05:57:51;-8.50;99.90
20700;DHT22;10511;51.232;9.420;2022-12-16T06:00:37;-8.60;99.90
20700;DHT22;10511;51.232;9.420;2022-12-16T06:03:22;-8.70;99.90
20700;DHT22;10511;51.232;9.420;2022-12-16T06:06:06;-8.80;99.90
20700;DHT22;10511;51.232;9.420;2022-12-16T06:08:51;-8.80;99.90
20700;DHT22;10511;51.232;9.420;2022-12-16T06:11:35;-8.80;99.90
20700;DHT22;10511;51.232;9.420;2022-12-16T06:14:19;-8.80;99.90
20700;DHT22;10511;51.232;9.420;2022-12-16T06:17:06;-8.60;99.90
20700;DHT22;10511;51.232;9.420;2022-12-16T06:19:50;-8.60;99.90
20700;DHT22;10511;51.232;9.420;2022-12-16T06:22:34;-8.80;99.90
20700;DHT22;10511;51.232;9.420;2022-12-16T06:25:18;-9.00;99.90
20700;DHT22;10511;51.232;9.420;2022-12-16T06:28:02;-9.00;99.90
20700;DHT22;10511;51.232;9.420;2022-12-16T06:30:47;-8.90;99.90
20700;DHT22;10511;51.232;9.420;2022-12-16T06:33:33;-8.50;99.90
20700;DHT22;10511;51.232;9.420;2022-12-16T06:36:17;-8.40;99.90
20700;DHT22;10511;51.232;9.420;2022-12-16T06:39:01;-8.30;99.90
20700;DHT22;10511;51.232;9.420;2022-12-16T06:41:46;-8.30;99.90
20700;DHT22;10511;51.232;9.420;2022-12-16T06:44:30;-8.30;99.90
20700;DHT22;10511;51.232;9.420;2022-12-16T06:47:14;-8.70;99.90
20700;DHT22;10511;51.232;9.420;2022-12-16T06:50:00;-8.70;99.90
20700;DHT22;10511;51.232;9.420;2022-12-16T06:52:44;-8.60;99.90
20700;DHT22;10511;51.232;9.420;2022-12-16T06:55:29;-8.60;99.90
20700;DHT22;10511;51.232;9.420;2022-12-16T06:58:10;-8.40;99.90
20700;DHT22;10511;51.232;9.420;2022-12-16T07:00:54;-8.40;99.90
20700;DHT22;10511;51.232;9.420;2022-12-16T07:03:39;-8.60;99.90
20700;DHT22;10511;51.232;9.420;2022-12-16T07:06:25;-8.90;99.90
20700;DHT22;10511;51.232;9.420;2022-12-16T07:09:10;-8.70;99.90
20700;DHT22;10511;51.232;9.420;2022-12-16T07:11:54;-8.60;99.90
20700;DHT22;10511;51.232;9.420;2022-12-16T07:14:38;-8.60;99.90
20700;DHT22;10511;51.232;9.420;2022-12-16T07:17:23;-8.70;99.90
20700;DHT22;10511;51.232;9.420;2022-12-16T07:20:08;-8.80;99.90
20700;DHT22;10511;51.232;9.420;2022-12-16T07:22:54;-8.70;99.90
20700;DHT22;10511;51.232;9.420;2022-12-16T07:25:38;-8.50;99.90
20700;DHT22;10511;51.232;9.420;2022-12-16T07:28:22;-8.40;99.90
20700;DHT22;10511;51.232;9.420;2022-12-16T07:31:07;-8.20;99.90
20700;DHT22;10511;51.232;9.420;2022-12-16T07:33:51;-8.30;99.90
20700;DHT22;10511;51.232;9.420;2022-12-16T07:36:35;-8.20;99.90
20700;DHT22;10511;51.232;9.420;2022-12-16T07:39:35;-8.40;99.90
20700;DHT22;10511;51.232;9.420;2022-12-16T07:42:28;-8.20;99.90
20700;DHT22;10511;51.232;9.420;2022-12-16T07:45:13;-8.10;99.90
20700;DHT22;10511;51.232;9.420;2022-12-16T07:47:57;-8.10;99.90
20700;DHT22;10511;51.232;9.420;2022-12-16T07:50:41;-8.00;99.90
20700;DHT22;10511;51.232;9.420;2022-12-16T07:53:27;-7.80;99.90
20700;DHT22;10511;51.232;9.420;2022-12-16T07:56:13;-7.80;99.90
20700;DHT22;10511;51.232;9.420;2022-12-16T07:58:57;-8.10;99.90
20700;DHT22;10511;51.232;9.420;2022-12-16T08:01:41;-8.10;99.90
20700;DHT22;10511;51.232;9.420;2022-12-16T08:04:26;-8.00;99.90
20700;DHT22;10511;51.232;9.420;2022-12-16T08:07:10;-7.80;99.90
20700;DHT22;10511;51.232;9.420;2022-12-16T08:09:55;-7.60;99.90
20700;DHT22;10511;51.232;9.420;2022-12-16T08:12:40;-7.80;99.90
20700;DHT22;10511;51.232;9.420;2022-12-16T08:15:39;-7.80;99.90
20700;DHT22;10511;51.232;9.420;2022-12-16T08:18:23;-7.80;99.90
20700;DHT22;10511;51.232;9.420;2022-12-16T08:21:08;-7.80;99.90
20700;DHT22;10511;51.232;9.420;2022-12-16T08:23:53;-7.80;99.90
20700;DHT22;10511;51.232;9.420;2022-12-16T08:26:37;-7.70;99.90
20700;DHT22;10511;51.232;9.420;2022-12-16T08:29:22;-7.70;99.90
20700;DHT22;10511;51.232;9.420;2022-12-16T08:32:07;-7.70;99.90
20700;DHT22;10511;51.232;9.420;2022-12-16T08:34:51;-7.70;99.90
20700;DHT22;10511;51.232;9.420;2022-12-16T08:37:35;-7.80;99.90
20700;DHT22;10511;51.232;9.420;2022-12-16T08:40:19;-7.80;99.90
20700;DHT22;10511;51.232;9.420;2022-12-16T08:43:03;-7.80;99.90
20700;DHT22;10511;51.232;9.420;2022-12-16T08:45:52;-7.80;99.90
20700;DHT22;10511;51.232;9.420;2022-12-16T08:48:37;-8.00;99.90
20700;DHT22;10511;51.232;9.420;2022-12-16T08:51:22;-8.10;99.90
20700;DHT22;10511;51.232;9.420;2022-12-16T08:54:06;-8.20;99.90
20700;DHT22;10511;51.232;9.420;2022-12-16T08:56:50;-8.30;99.90
20700;DHT22;10511;51.232;9.420;2022-12-16T08:59:34;-8.10;99.90
20700;DHT22;10511;51.232;9.420;2022-12-16T09:02:20;-8.00;99.90
20700;DHT22;10511;51.232;9.420;2022-12-16T09:05:05;-8.00;99.90
20700;DHT22;10511;51.232;9.420;2022-12-16T09:07:49;-8.00;99.90
20700;DHT22;10511;51.232;9.420;2022-12-16T09:10:34;-8.00;99.90
20700;DHT22;10511;51.232;9.420;2022-12-16T09:13:18;-8.00;99.90
20700;DHT22;10511;51.232;9.420;2022-12-16T09:16:02;-8.00;99.90
20700;DHT22;10511;51.232;9.420;2022-12-16T09:18:48;-8.00;99.90
20700;DHT22;10511;51.232;9.420;2022-12-16T09:21:32;-7.90;99.90
20700;DHT22;10511;51.232;9.420;2022-12-16T09:24:17;-7.90;99.90
20700;DHT22;10511;51.232;9.420;2022-12-16T09:27:01;-7.80;99.90
20700;DHT22;10511;51.232;9.420;2022-12-16T09:29:45;-7.80;99.90
20700;DHT22;10511;51.232;9.420;2022-12-16T09:32:29;-7.70;99.90
20700;DHT22;10511;51.232;9.420;2022-12-16T09:35:12;-7.70;99.90
20700;DHT22;10511;51.232;9.420;2022-12-16T09:37:56;-7.60;99.90
20700;DHT22;10511;51.232;9.420;2022-12-16T09:40:41;-7.50;99.90
20700;DHT22;10511;51.232;9.420;2022-12-16T09:43:45;-7.50;99.90
20700;DHT22;10511;51.232;9.420;2022-12-16T09:46:41;-7.40;99.90
20700;DHT22;10511;51.232;9.420;2022-12-16T09:49:39;-7.30;99.90
20700;DHT22;10511;51.232;9.420;2022-12-16T09:52:27;-7.10;99.90
20700;DHT22;10511;51.232;9.420;2022-12-16T09:55:21;-7.00;99.90
20700;DHT22;10511;51.232;9.420;2022-12-16T09:58:08;-7.00;99.90
20700;DHT22;10511;51.232;9.420;2022-12-16T10:00:55;-6.90;99.90
20700;DHT22;10511;51.232;9.420;2022-12-16T10:03:40;-6.80;99.90
20700;DHT22;10511;51.232;9.420;2022-12-16T10:06:31;-6.70;99.90
20700;DHT22;10511;51.232;9.420;2022-12-16T10:09:24;-6.60;99.90
20700;DHT22;10511;51.232;9.420;2022-12-16T10:12:17;-6.60;99.90
20700;DHT22;10511;51.232;9.420;2022-12-16T10:15:13;-6.50;99.90
20700;DHT22;10511;51.232;9.420;2022-12-16T10:18:03;-6.40;99.90
20700;DHT22;10511;51.232;9.420;2022-12-16T10:20:50;-6.20;99.90
20700;DHT22;10511;51.232;9.420;2022-12-16T10:23:42;-6.20;99.90
20700;DHT22;10511;51.232;9.420;2022-12-16T10:26:37;-6.10;99.90
20700;DHT22;10511;51.232;9.420;2022-12-16T10:29:26;-6.00;99.90
20700;DHT22;10511;51.232;9.420;2022-12-16T10:32:14;-5.90;99.90
20700;DHT22;10511;51.232;9.420;2022-12-16T10:35:00;-5.70;99.90
20700;DHT22;10511;51.232;9.420;2022-12-16T10:37:45;-5.50;99.90
20700;DHT22;10511;51.232;9.420;2022-12-16T10:40:34;-5.30;99.90
20700;DHT22;10511;51.232;9.420;2022-12-16T10:43:26;-5.10;99.90
20700;DHT22;10511;51.232;9.420;2022-12-16T10:46:32;-5.00;99.90
20700;DHT22;10511;51.232;9.420;2022-12-16T10:49:16;-4.70;99.90
20700;DHT22;10511;51.232;9.420;2022-12-16T10:52:01;-4.40;99.90
20700;DHT22;10511;51.232;9.420;2022-12-16T10:54:50;-4.20;99.90
20700;DHT22;10511;51.232;9.420;2022-12-16T10:57:47;-4.30;99.90
20700;DHT22;10511;51.232;9.420;2022-12-16T11:00:42;-4.20;99.90
20700;DHT22;10511;51.232;9.420;2022-12-16T11:03:28;-4.00;99.90
20700;DHT22;10511;51.232;9.420;2022-12-16T11:06:16;-3.80;99.90
20700;DHT22;10511;51.232;9.420;2022-12-16T11:09:23;-3.40;99.90
20700;DHT22;10511;51.232;9.420;2022-12-16T11:12:19;-3.40;99.90
20700;DHT22;10511;51.232;9.420;2022-12-16T11:15:22;-3.60;99.90
20700;DHT22;10511;51.232;9.420;2022-12-16T11:18:13;-3.70;99.90
20700;DHT22;10511;51.232;9.420;2022-12-16T11:21:19;-3.70;99.90
20700;DHT22;10511;51.232;9.420;2022-12-16T11:24:09;-3.70;99.90
20700;DHT22;10511;51.232;9.420;2022-12-16T11:26:56;-3.80;99.90
20700;DHT22;10511;51.232;9.420;2022-12-16T11:29:54;-3.70;99.90
20700;DHT22;10511;51.232;9.420;2022-12-16T11:32:42;-3.70;99.90
20700;DHT22;10511;51.232;9.420;2022-12-16T11:35:31;-3.60;99.90
20700;DHT22;10511;51.232;9.420;2022-12-16T11:38:22;-3.60;99.90
20700;DHT22;10511;51.232;9.420;2022-12-16T11:44:15;-3.50;99.90
20700;DHT22;10511;51.232;9.420;2022-12-16T11:47:01;-3.40;99.90
20700;DHT22;10511;51.232;9.420;2022-12-16T11:49:45;-3.40;99.90
20700;DHT22;10511;51.232;9.420;2022-12-16T11:52:31;-3.40;99.90
20700;DHT22;10511;51.232;9.420;2022-12-16T11:55:18;-3.40;99.90
20700;DHT22;10511;51.232;9.420;2022-12-16T11:58:11;-3.40;99.90
20700;DHT22;10511;51.232;9.420;2022-12-16T12:01:04;-3.40;99.90
20700;DHT22;10511;51.232;9.420;2022-12-16T12:03:50;-3.40;99.90
20700;DHT22;10511;51.232;9.420;2022-12-16T12:06:45;-3.30;99.90
20700;DHT22;10511;51.232;9.420;2022-12-16T12:09:44;-3.30;99.90
20700;DHT22;10511;51.232;9.420;2022-12-16T12:12:34;-3.20;99.90
20700;DHT22;10511;51.232;9.420;2022-12-16T12:15:28;-3.00;99.90
20700;DHT22;10511;51.232;9.420;2022-12-16T12:18:22;-2.90;99.90
20700;DHT22;10511;51.232;9.420;2022-12-16T12:21:15;-2.60;99.90
20700;DHT22;10511;51.232;9.420;2022-12-16T12:24:11;-2.30;99.90
20700;DHT22;10511;51.232;9.420;2022-12-16T12:27:08;-2.40;99.90
20700;DHT22;10511;51.232;9.420;2022-12-16T12:29:59;-2.20;99.90
20700;DHT22;10511;51.232;9.420;2022-12-16T12:32:52;-2.30;99.90
20700;DHT22;10511;51.232;9.420;2022-12-16T12:35:51;-2.60;99.90
20700;DHT22;10511;51.232;9.420;2022-12-16T12:38:43;-2.50;99.90
20700;DHT22;10511;51.232;9.420;2022-12-16T12:41:39;-2.60;99.90
20700;DHT22;10511;51.232;9.420;2022-12-16T12:44:40;-2.60;99.90
20700;DHT22;10511;51.232;9.420;2022-12-16T12:47:28;-2.70;99.90
20700;DHT22;10511;51.232;9.420;2022-12-16T12:50:18;-2.70;99.90
20700;DHT22;10511;51.232;9.420;2022-12-16T12:53:17;-2.70;99.90
20700;DHT22;10511;51.232;9.420;2022-12-16T12:56:08;-2.70;99.90
20700;DHT22;10511;51.232;9.420;2022-12-16T12:58:58;-2.70;99.90
20700;DHT22;10511;51.232;9.420;2022-12-16T13:01:46;-2.70;99.90
20700;DHT22;10511;51.232;9.420;2022-12-16T13:04:43;-2.70;99.90
20700;DHT22;10511;51.232;9.420;2022-12-16T13:07:30;-2.80;99.90
20700;DHT22;10511;51.232;9.420;2022-12-16T13:10:31;-2.90;99.90
20700;DHT22;10511;51.232;9.420;2022-12-16T13:13:33;-2.80;99.90
20700;DHT22;10511;51.232;9.420;2022-12-16T13:19:56;-2.80;99.90
20700;DHT22;10511;51.232;9.420;2022-12-16T13:22:43;-2.80;99.90
20700;DHT22;10511;51.232;9.420;2022-12-16T13:25:37;-2.80;99.90
20700;DHT22;10511;51.232;9.420;2022-12-16T13:28:24;-2.80;99.90
20700;DHT22;10511;51.232;9.420;2022-12-16T13:31:09;-2.90;99.90
20700;DHT22;10511;51.232;9.420;2022-12-16T13:33:58;-2.70;99.90
20700;DHT22;10511;51.232;9.420;2022-12-16T13:36:55;-2.70;99.90
20700;DHT22;10511;51.232;9.420;2022-12-16T13:39:42;-2.70;99.90
20700;DHT22;10511;51.232;9.420;2022-12-16T13:42:50;-2.70;99.90
20700;DHT22;10511;51.232;9.420;2022-12-16T13:45:38;-2.70;99.90
20700;DHT22;10511;51.232;9.420;2022-12-16T13:48:32;-2.70;99.90
20700;DHT22;10511;51.232;9.420;2022-12-16T13:51:57;-2.70;99.90
20700;DHT22;10511;51.232;9.420;2022-12-16T13:54:50;-2.70;99.90
20700;DHT22;10511;51.232;9.420;2022-12-16T13:57:38;-2.70;99.90
20700;DHT22;10511;51.232;9.420;2022-12-16T14:00:26;-2.80;99.90
20700;DHT22;10511;51.232;9.420;2022-12-16T14:03:14;-2.80;99.90
20700;DHT22;10511;51.232;9.420;2022-12-16T14:06:02;-2.80;99.90
20700;DHT22;10511;51.232;9.420;2022-12-16T14:08:49;-2.90;99.90
20700;DHT22;10511;51.232;9.420;2022-12-16T14:11:42;-2.90;99.90
20700;DHT22;10511;51.232;9.420;2022-12-16T14:14:32;-2.90;99.90
20700;DHT22;10511;51.232;9.420;2022-12-16T14:17:23;-2.90;99.90
20700;DHT22;10511;51.232;9.420;2022-12-16T14:20:14;-2.90;99.90
20700;DHT22;10511;51.232;9.420;2022-12-16T14:23:28;-2.90;99.90
20700;DHT22;10511;51.232;9.420;2022-12-16T14:26:14;-2.90;99.90
20700;DHT22;10511;51.232;9.420;2022-12-16T14:29:00;-3.00;99.90
20700;DHT22;10511;51.232;9.420;2022-12-16T14:31:48;-3.10;99.90
20700;DHT22;10511;51.232;9.420;2022-12-16T14:34:34;-3.10;99.90
20700;DHT22;10511;51.232;9.420;2022-12-16T14:37:21;-3.10;99.90
20700;DHT22;10511;51.232;9.420;2022-12-16T14:40:23;-3.10;99.90
20700;DHT22;10511;51.232;9.420;2022-12-16T14:43:12;-3.10;99.90
20700;DHT22;10511;51.232;9.420;2022-12-16T14:45:58;-3.20;99.90
20700;DHT22;10511;51.232;9.420;2022-12-16T14:48:45;-3.20;99.90
20700;DHT22;10511;51.232;9.420;2022-12-16T14:51:31;-3.20;99.90
20700;DHT22;10511;51.232;9.420;2022-12-16T14:54:23;-3.20;99.90
20700;DHT22;10511;51.232;9.420;2022-12-16T14:57:13;-3.30;99.90
20700;DHT22;10511;51.232;9.420;2022-12-16T15:00:31;-3.40;99.90
20700;DHT22;10511;51.232;9.420;2022-12-16T15:03:21;-3.40;99.90
20700;DHT22;10511;51.232;9.420;2022-12-16T15:06:11;-3.40;99.90
20700;DHT22;10511;51.232;9.420;2022-12-16T15:09:01;-3.40;99.90
20700;DHT22;10511;51.232;9.420;2022-12-16T15:11:47;-3.40;99.90
20700;DHT22;10511;51.232;9.420;2022-12-16T15:14:36;-3.50;99.90
20700;DHT22;10511;51.232;9.420;2022-12-16T15:17:24;-3.50;99.90
20700;DHT22;10511;51.232;9.420;2022-12-16T15:20:16;-3.60;99.90
20700;DHT22;10511;51.232;9.420;2022-12-16T15:23:02;-3.50;99.90
20700;DHT22;10511;51.232;9.420;2022-12-16T15:25:54;-3.60;99.90
20700;DHT22;10511;51.232;9.420;2022-12-16T15:28:40;-3.60;99.90
20700;DHT22;10511;51.232;9.420;2022-12-16T15:31:29;-3.60;99.90
20700;DHT22;10511;51.232;9.420;2022-12-16T15:34:30;-3.60;99.90
20700;DHT22;10511;51.232;9.420;2022-12-16T15:37:23;-3.60;99.90
20700;DHT22;10511;51.232;9.420;2022-12-16T15:40:25;-3.60;99.90
20700;DHT22;10511;51.232;9.420;2022-12-16T15:43:27;-3.60;99.90
20700;DHT22;10511;51.232;9.420;2022-12-16T15:46:16;-3.60;99.90
20700;DHT22;10511;51.232;9.420;2022-12-16T15:49:01;-3.60;99.90
20700;DHT22;10511;51.232;9.420;2022-12-16T15:51:49;-3.60;99.90
20700;DHT22;10511;51.232;9.420;2022-12-16T15:54:50;-3.60;99.90
20700;DHT22;10511;51.232;9.420;2022-12-16T15:57:36;-3.60;99.90
20700;DHT22;10511;51.232;9.420;2022-12-16T16:00:23;-3.70;99.90
20700;DHT22;10511;51.232;9.420;2022-12-16T16:03:20;-3.70;99.90
20700;DHT22;10511;51.232;9.420;2022-12-16T16:06:14;-3.80;99.90
20700;DHT22;10511;51.232;9.420;2022-12-16T16:09:00;-3.80;99.90
20700;DHT22;10511;51.232;9.420;2022-12-16T16:11:44;-3.90;99.90
20700;DHT22;10511;51.232;9.420;2022-12-16T16:14:29;-4.00;99.90
20700;DHT22;10511;51.232;9.420;2022-12-16T16:17:22;-4.20;99.90
20700;DHT22;10511;51.232;9.420;2022-12-16T16:20:12;-4.20;99.90
20700;DHT22;10511;51.232;9.420;2022-12-16T16:22:57;-4.20;99.90
20700;DHT22;10511;51.232;9.420;2022-12-16T16:25:44;-4.20;99.90
20700;DHT22;10511;51.232;9.420;2022-12-16T16:28:29;-4.20;99.90
20700;DHT22;10511;51.232;9.420;2022-12-16T16:31:13;-4.20;99.90
20700;DHT22;10511;51.232;9.420;2022-12-16T16:33:57;-4.30;99.90
20700;DHT22;10511;51.232;9.420;2022-12-16T16:36:42;-4.40;99.90
20700;DHT22;10511;51.232;9.420;2022-12-16T16:39:26;-4.50;99.90
20700;DHT22;10511;51.232;9.420;2022-12-16T16:42:12;-4.50;99.90
20700;DHT22;10511;51.232;9.420;2022-12-16T16:45:08;-4.50;99.90
20700;DHT22;10511;51.232;9.420;2022-12-16T16:47:54;-4.50;99.90
20700;DHT22;10511;51.232;9.420;2022-12-16T16:50:44;-4.50;99.90
20700;DHT22;10511;51.232;9.420;2022-12-16T16:53:28;-4.50;99.90
20700;DHT22;10511;51.232;9.420;2022-12-16T16:56:13;-4.50;99.90
20700;DHT22;10511;51.232;9.420;2022-12-16T16:58:58;-4.50;99.90
20700;DHT22;10511;51.232;9.420;2022-12-16T17:01:42;-4.50;99.90
20700;DHT22;10511;51.232;9.420;2022-12-16T17:04:27;-4.50;99.90
20700;DHT22;10511;51.232;9.420;2022-12-16T17:07:11;-4.60;99.90
20700;DHT22;10511;51.232;9.420;2022-12-16T17:09:55;-4.50;99.90
20700;DHT22;10511;51.232;9.420;2022-12-16T17:12:40;-4.60;99.90
20700;DHT22;10511;51.232;9.420;2022-12-16T17:15:32;-4.60;99.90
20700;DHT22;10511;51.232;9.420;2022-12-16T17:18:17;-4.60;99.90
20700;DHT22;10511;51.232;9.420;2022-12-16T17:21:02;-4.60;99.90
20700;DHT22;10511;51.232;9.420;2022-12-16T17:23:46;-4.50;99.90
20700;DHT22;10511;51.232;9.420;2022-12-16T17:26:31;-4.50;99.90